createdAt,value
2019-05-29T00:01:10.579Z,12.31
2019-05-29T00:03:38.254Z,12.26
2019-05-29T00:06:08.151Z,12.21
2019-05-29T00:08:37.754Z,12.17
2019-05-29T00:11:08.024Z,12.12
2019-05-29T00:13:38.288Z,12.09
2019-05-29T00:16:08.287Z,12.07
2019-05-29T00:18:37.871Z,12.02
2019-05-29T00:21:08.286Z,11.99
2019-05-29T00:23:38.012Z,11.96
2019-05-29T00:26:08.296Z,11.93
2019-05-29T00:28:37.858Z,11.86
2019-05-29T00:31:07.699Z,11.82
2019-05-29T00:33:37.325Z,11.76
2019-05-29T00:36:06.814Z,11.69
2019-05-29T00:38:36.288Z,11.64
2019-05-29T00:41:06.746Z,11.57
2019-05-29T00:43:36.420Z,11.51
2019-05-29T00:46:05.915Z,11.45
2019-05-29T00:48:35.403Z,11.38
2019-05-29T00:51:04.991Z,11.32
2019-05-29T00:53:34.519Z,11.26
2019-05-29T00:56:03.997Z,11.20
2019-05-29T00:58:33.655Z,11.13
2019-05-29T01:01:23.199Z,11.05
2019-05-29T01:03:53.393Z,11.00
2019-05-29T01:06:23.313Z,10.92
2019-05-29T01:08:54.414Z,10.85
2019-05-29T01:11:23.926Z,10.78
2019-05-29T01:13:53.385Z,10.72
2019-05-29T01:16:23.046Z,10.66
2019-05-29T01:18:52.550Z,10.60
2019-05-29T01:21:22.229Z,10.54
2019-05-29T01:23:51.684Z,10.48
2019-05-29T01:26:40.510Z,10.43
2019-05-29T01:29:09.976Z,10.38
2019-05-29T01:31:39.471Z,10.32
2019-05-29T01:34:08.995Z,10.27
2019-05-29T01:36:38.557Z,10.21
2019-05-29T01:39:08.609Z,10.17
2019-05-29T01:41:38.163Z,10.11
2019-05-29T01:44:07.700Z,10.07
2019-05-29T01:46:37.198Z,10.01
2019-05-29T01:49:06.661Z,9.98
2019-05-29T01:51:36.161Z,9.93
2019-05-29T01:54:06.132Z,9.88
2019-05-29T01:56:35.574Z,9.83
2019-05-29T01:59:05.271Z,9.77
2019-05-29T02:01:34.888Z,9.72
2019-05-29T02:04:04.494Z,9.67
2019-05-29T02:06:34.049Z,9.62
2019-05-29T02:09:05.075Z,9.57
2019-05-29T02:11:34.624Z,9.52
2019-05-29T02:14:04.166Z,9.46
2019-05-29T02:16:33.654Z,9.41
2019-05-29T02:19:03.157Z,9.36
2019-05-29T02:21:32.614Z,9.32
2019-05-29T02:24:02.193Z,9.27
2019-05-29T02:26:31.670Z,9.22
2019-05-29T02:29:01.125Z,9.19
2019-05-29T02:31:30.678Z,9.14
2019-05-29T02:34:00.130Z,9.11
2019-05-29T02:36:29.623Z,9.06
2019-05-29T02:38:59.154Z,9.02
2019-05-29T02:41:29.929Z,8.98
2019-05-29T02:43:59.471Z,8.95
2019-05-29T02:46:30.144Z,8.90
2019-05-29T02:48:59.726Z,8.87
2019-05-29T02:51:30.424Z,8.83
2019-05-29T02:54:00.080Z,8.80
2019-05-29T02:56:31.296Z,8.77
2019-05-29T02:59:00.890Z,8.72
2019-05-29T03:01:31.719Z,8.68
2019-05-29T03:04:01.327Z,8.64
2019-05-29T03:06:32.349Z,8.58
2019-05-29T03:09:05.049Z,8.54
2019-05-29T03:11:35.082Z,8.50
2019-05-29T03:14:04.870Z,8.47
2019-05-29T03:16:35.020Z,8.43
2019-05-29T03:19:04.741Z,8.40
2019-05-29T03:21:34.820Z,8.37
2019-05-29T03:24:04.611Z,8.34
2019-05-29T03:26:35.103Z,8.31
2019-05-29T03:29:04.953Z,8.27
2019-05-29T03:31:39.625Z,8.23
2019-05-29T03:34:05.969Z,8.17
2019-05-29T03:36:41.984Z,8.13
2019-05-29T03:39:07.825Z,8.10
2019-05-29T03:41:39.024Z,8.08
2019-05-29T03:44:10.424Z,8.05
2019-05-29T03:46:45.199Z,8.04
2019-05-29T03:49:11.082Z,8.02
2019-05-29T03:51:40.658Z,8.00
2019-05-29T03:54:10.108Z,7.99
2019-05-29T03:56:39.664Z,7.98
2019-05-29T03:59:09.120Z,7.97
2019-05-29T04:01:38.606Z,7.96
2019-05-29T04:04:08.086Z,7.94
2019-05-29T04:06:37.762Z,7.95
2019-05-29T04:09:07.907Z,7.94
2019-05-29T04:11:38.341Z,7.94
2019-05-29T04:14:08.144Z,7.93
2019-05-29T04:16:58.641Z,7.93
2019-05-29T04:19:11.208Z,7.93
2019-05-29T04:21:42.217Z,7.94
2019-05-29T04:24:12.138Z,7.97
2019-05-29T04:26:41.937Z,7.98
2019-05-29T04:29:11.997Z,7.98
2019-05-29T04:31:41.453Z,7.99
2019-05-29T04:34:10.984Z,8.01
2019-05-29T04:36:40.482Z,8.02
2019-05-29T04:39:09.990Z,8.05
2019-05-29T04:41:39.468Z,8.08
2019-05-29T04:44:08.910Z,8.12
2019-05-29T04:46:40.508Z,8.15
2019-05-29T04:49:09.636Z,8.20
2019-05-29T04:51:40.631Z,8.24
2019-05-29T04:54:10.201Z,8.27
2019-05-29T04:56:39.650Z,8.33
2019-05-29T04:59:09.301Z,8.39
2019-05-29T05:01:39.289Z,8.46
2019-05-29T05:04:08.868Z,8.53
2019-05-29T05:06:39.241Z,8.59
2019-05-29T05:09:09.354Z,8.67
2019-05-29T05:11:39.643Z,8.75
2019-05-29T05:14:09.482Z,8.84
2019-05-29T05:16:39.974Z,8.92
2019-05-29T05:19:09.544Z,8.99
2019-05-29T05:21:40.166Z,9.08
2019-05-29T05:24:09.755Z,9.18
2019-05-29T05:26:40.347Z,9.29
2019-05-29T05:29:10.184Z,9.38
2019-05-29T05:31:40.834Z,9.48
2019-05-29T05:34:10.453Z,9.57
2019-05-29T05:36:41.033Z,9.69
2019-05-29T05:39:10.573Z,9.78
2019-05-29T05:41:41.073Z,9.88
2019-05-29T05:44:10.596Z,9.98
2019-05-29T05:46:41.291Z,10.09
2019-05-29T05:49:10.871Z,10.19
2019-05-29T05:51:44.181Z,10.32
2019-05-29T05:54:11.688Z,10.42
2019-05-29T05:56:41.810Z,10.54
2019-05-29T05:59:11.383Z,10.64
2019-05-29T06:01:42.091Z,10.76
2019-05-29T06:04:11.771Z,10.87
2019-05-29T06:06:42.356Z,10.98
2019-05-29T06:09:11.924Z,11.09
2019-05-29T06:11:42.591Z,11.21
2019-05-29T06:14:12.161Z,11.33
2019-05-29T06:16:42.762Z,11.44
2019-05-29T06:19:12.429Z,11.56
2019-05-29T06:22:01.276Z,11.68
2019-05-29T06:24:30.740Z,11.79
2019-05-29T06:27:00.236Z,11.91
2019-05-29T06:29:30.330Z,12.03
2019-05-29T06:31:59.833Z,12.13
2019-05-29T06:34:29.302Z,12.25
2019-05-29T06:36:58.818Z,12.30
2019-05-29T06:39:28.290Z,12.46
2019-05-29T06:41:57.821Z,12.56
2019-05-29T06:44:27.424Z,12.66
2019-05-29T06:46:57.074Z,12.76
2019-05-29T06:49:27.436Z,12.85
2019-05-29T06:51:56.908Z,12.94
2019-05-29T06:54:29.186Z,13.03
2019-05-29T06:56:59.511Z,13.14
2019-05-29T06:59:29.014Z,13.25
2019-05-29T07:01:58.487Z,13.34
2019-05-29T07:04:27.983Z,13.44
2019-05-29T07:06:57.505Z,13.55
2019-05-29T07:09:27.161Z,13.66
2019-05-29T07:11:57.271Z,13.77
2019-05-29T07:14:26.937Z,13.88
2019-05-29T07:16:56.587Z,13.99
2019-05-29T07:19:45.085Z,14.09
2019-05-29T07:21:57.262Z,14.19
2019-05-29T07:24:26.730Z,14.28
2019-05-29T07:26:56.267Z,14.35
2019-05-29T07:29:25.779Z,14.42
2019-05-29T07:31:55.272Z,14.52
2019-05-29T07:34:24.738Z,14.60
2019-05-29T07:36:54.264Z,14.69
2019-05-29T07:39:23.724Z,14.78
2019-05-29T07:41:53.207Z,14.85
2019-05-29T07:44:22.687Z,14.94
2019-05-29T07:46:52.186Z,15.03
2019-05-29T07:49:35.835Z,15.12
2019-05-29T07:51:52.914Z,15.21
2019-05-29T07:54:22.393Z,15.32
2019-05-29T07:57:11.224Z,15.42
2019-05-29T07:59:40.699Z,15.53
2019-05-29T08:02:10.230Z,15.65
2019-05-29T08:04:40.914Z,15.76
2019-05-29T08:07:10.568Z,15.87
2019-05-29T08:09:41.284Z,15.96
2019-05-29T08:12:10.880Z,16.06
2019-05-29T08:14:41.717Z,16.14
2019-05-29T08:17:11.436Z,16.22
2019-05-29T08:19:56.974Z,16.30
2019-05-29T08:22:12.339Z,16.39
2019-05-29T08:24:42.604Z,16.46
2019-05-29T08:27:12.159Z,16.54
2019-05-29T08:29:42.596Z,16.59
2019-05-29T08:32:12.152Z,16.67
2019-05-29T08:34:42.989Z,16.76
2019-05-29T08:37:12.667Z,16.86
2019-05-29T08:39:43.402Z,16.98
2019-05-29T08:42:23.522Z,17.08
2019-05-29T08:44:45.393Z,17.18
2019-05-29T08:47:14.986Z,17.29
2019-05-29T08:49:48.038Z,17.39
2019-05-29T08:52:15.733Z,17.49
2019-05-29T08:54:46.022Z,17.59
2019-05-29T08:57:15.662Z,17.69
2019-05-29T08:59:46.323Z,17.80
2019-05-29T09:02:15.922Z,17.89
2019-05-29T09:04:47.788Z,18.01
2019-05-29T09:07:16.605Z,18.10
2019-05-29T09:09:46.979Z,18.20
2019-05-29T09:12:16.551Z,18.31
2019-05-29T09:14:46.024Z,18.39
2019-05-29T09:17:16.850Z,18.46
2019-05-29T09:19:46.772Z,18.54
2019-05-29T09:22:16.516Z,18.64
2019-05-29T09:24:46.178Z,18.72
2019-05-29T09:27:16.999Z,18.80
2019-05-29T09:29:46.507Z,18.92
2019-05-29T09:32:17.054Z,19.02
2019-05-29T09:34:48.283Z,19.11
2019-05-29T09:37:18.930Z,19.18
2019-05-29T09:39:48.558Z,19.26
2019-05-29T09:42:19.960Z,19.33
2019-05-29T09:44:49.333Z,19.38
2019-05-29T09:47:20.188Z,19.44
2019-05-29T09:49:50.304Z,19.49
2019-05-29T09:52:19.798Z,19.53
2019-05-29T09:54:49.369Z,19.59
2019-05-29T09:57:18.938Z,19.62
2019-05-29T09:59:48.509Z,19.65
2019-05-29T10:02:18.094Z,19.69
2019-05-29T10:04:47.623Z,19.71
2019-05-29T10:07:17.101Z,19.72
2019-05-29T10:09:46.570Z,19.76
2019-05-29T10:12:16.240Z,19.80
2019-05-29T10:14:46.074Z,19.87
2019-05-29T10:17:15.669Z,19.95
2019-05-29T10:19:45.127Z,20.01
2019-05-29T10:22:14.639Z,20.06
2019-05-29T10:24:44.127Z,20.11
2019-05-29T10:27:13.714Z,20.15
2019-05-29T10:29:43.180Z,20.19
2019-05-29T10:32:12.953Z,20.22
2019-05-29T10:34:42.464Z,20.26
2019-05-29T10:37:11.919Z,20.31
2019-05-29T10:39:42.654Z,20.36
2019-05-29T10:42:12.351Z,20.42
2019-05-29T10:44:42.949Z,20.46
2019-05-29T10:47:12.433Z,20.53
2019-05-29T10:49:43.442Z,20.61
2019-05-29T10:52:16.309Z,20.68
2019-05-29T10:54:44.180Z,20.76
2019-05-29T10:57:13.653Z,20.82
2019-05-29T10:59:43.143Z,20.86
2019-05-29T11:02:12.655Z,20.91
2019-05-29T11:04:42.208Z,20.98
2019-05-29T11:07:11.658Z,21.03
2019-05-29T11:09:44.846Z,21.08
2019-05-29T11:12:12.511Z,21.15
2019-05-29T11:14:41.992Z,21.22
2019-05-29T11:17:11.597Z,21.33
2019-05-29T11:19:41.068Z,21.42
2019-05-29T11:22:25.191Z,21.51
2019-05-29T11:24:42.019Z,21.61
2019-05-29T11:27:11.560Z,21.71
2019-05-29T11:29:41.113Z,21.74
2019-05-29T11:32:10.713Z,21.81
2019-05-29T11:34:40.167Z,21.84
2019-05-29T11:37:09.673Z,21.87
2019-05-29T11:39:39.248Z,21.90
2019-05-29T11:42:08.769Z,21.90
2019-05-29T11:44:38.263Z,21.87
2019-05-29T11:47:07.739Z,21.89
2019-05-29T11:49:37.355Z,21.94
2019-05-29T11:52:23.703Z,21.96
2019-05-29T11:54:38.140Z,22.00
2019-05-29T11:57:07.758Z,22.06
2019-05-29T11:59:37.245Z,22.13
2019-05-29T12:02:06.875Z,22.18
2019-05-29T12:04:36.370Z,22.23
2019-05-29T12:07:05.895Z,22.26
2019-05-29T12:09:35.563Z,22.29
2019-05-29T12:12:05.402Z,22.30
2019-05-29T12:14:57.632Z,22.34
2019-05-29T12:17:06.254Z,22.39
2019-05-29T12:19:35.765Z,22.42
2019-05-29T12:22:05.443Z,22.43
2019-05-29T12:24:35.011Z,22.47
2019-05-29T12:27:04.743Z,22.51
2019-05-29T12:29:34.206Z,22.55
2019-05-29T12:32:08.230Z,22.59
2019-05-29T12:34:34.946Z,22.62
2019-05-29T12:37:04.397Z,22.67
2019-05-29T12:39:34.030Z,22.71
2019-05-29T12:42:03.770Z,22.75
2019-05-29T12:44:33.429Z,22.79
2019-05-29T12:47:04.243Z,22.79
2019-05-29T12:49:34.074Z,22.71
2019-05-29T12:52:07.683Z,22.60
2019-05-29T12:54:35.074Z,22.44
2019-05-29T12:57:04.641Z,22.34
2019-05-29T12:59:34.167Z,22.30
2019-05-29T13:02:04.752Z,22.31
2019-05-29T13:05:05.213Z,22.35
2019-05-29T13:07:05.604Z,22.40
2019-05-29T13:09:35.255Z,22.47
2019-05-29T13:12:04.976Z,22.54
2019-05-29T13:14:34.517Z,22.58
2019-05-29T13:17:05.218Z,22.61
2019-05-29T13:19:34.852Z,22.66
2019-05-29T13:22:06.258Z,22.72
2019-05-29T13:24:35.690Z,22.80
2019-05-29T13:27:06.044Z,22.91
2019-05-29T13:29:35.978Z,23.00
2019-05-29T13:32:07.337Z,23.10
2019-05-29T13:34:37.213Z,23.20
2019-05-29T13:37:08.059Z,23.25
2019-05-29T13:39:37.950Z,23.32
2019-05-29T13:42:11.705Z,23.37
2019-05-29T13:44:38.697Z,23.41
2019-05-29T13:47:08.610Z,23.43
2019-05-29T13:49:38.197Z,23.45
2019-05-29T13:52:11.873Z,23.49
2019-05-29T13:54:38.927Z,23.51
2019-05-29T13:57:08.761Z,23.54
2019-05-29T13:59:38.406Z,23.58
2019-05-29T14:02:08.752Z,23.62
2019-05-29T14:04:39.217Z,23.62
2019-05-29T14:07:08.997Z,23.59
2019-05-29T14:09:38.489Z,23.53
2019-05-29T14:12:09.383Z,23.58
2019-05-29T14:14:39.056Z,23.62
2019-05-29T14:17:08.863Z,23.67
2019-05-29T14:19:38.583Z,23.75
2019-05-29T14:22:09.223Z,23.82
2019-05-29T14:24:38.842Z,23.89
2019-05-29T14:27:09.666Z,23.94
2019-05-29T14:29:39.349Z,23.97
2019-05-29T14:32:09.268Z,24.01
2019-05-29T14:34:38.869Z,24.04
2019-05-29T14:37:09.757Z,24.05
2019-05-29T14:39:39.440Z,24.06
2019-05-29T14:42:10.090Z,24.05
2019-05-29T14:44:39.830Z,24.04
2019-05-29T14:47:10.224Z,24.04
2019-05-29T14:49:39.877Z,24.06
2019-05-29T14:52:11.266Z,24.05
2019-05-29T14:54:42.510Z,24.06
2019-05-29T14:57:24.494Z,24.04
2019-05-29T14:59:43.299Z,24.04
2019-05-29T15:02:21.627Z,24.03
2019-05-29T15:04:44.113Z,23.94
2019-05-29T15:07:14.003Z,23.84
2019-05-29T15:09:43.606Z,23.73
2019-05-29T15:12:14.300Z,23.67
2019-05-29T15:14:43.913Z,23.63
2019-05-29T15:17:15.174Z,23.62
2019-05-29T15:19:44.720Z,23.63
2019-05-29T15:22:15.866Z,23.63
2019-05-29T15:25:00.851Z,23.59
2019-05-29T15:27:16.764Z,23.56
2019-05-29T15:29:46.288Z,23.52
2019-05-29T15:32:16.677Z,23.50
2019-05-29T15:34:46.565Z,23.49
2019-05-29T15:37:18.638Z,23.46
2019-05-29T15:39:47.256Z,23.46
2019-05-29T15:42:17.057Z,23.45
2019-05-29T15:44:46.624Z,23.43
2019-05-29T15:47:17.206Z,23.36
2019-05-29T15:49:46.829Z,23.28
2019-05-29T15:52:17.404Z,23.23
2019-05-29T15:54:47.070Z,23.22
2019-05-29T15:57:17.297Z,23.21
2019-05-29T15:59:46.856Z,23.23
2019-05-29T16:02:17.819Z,23.27
2019-05-29T16:04:47.491Z,23.34
2019-05-29T16:07:18.142Z,23.58
2019-05-29T16:09:47.910Z,24.03
2019-05-29T16:12:18.818Z,24.59
2019-05-29T16:14:48.613Z,25.23
2019-05-29T16:17:19.128Z,25.89
2019-05-29T16:19:48.878Z,26.48
2019-05-29T16:22:19.015Z,27.09
2019-05-29T16:24:48.678Z,27.67
2019-05-29T16:27:18.213Z,28.25
2019-05-29T16:29:47.785Z,28.79
2019-05-29T16:32:17.831Z,29.32
2019-05-29T16:34:47.384Z,29.78
2019-05-29T16:37:17.393Z,30.24
2019-05-29T16:39:47.013Z,30.68
2019-05-29T16:42:16.476Z,31.10
2019-05-29T16:44:45.983Z,31.38
2019-05-29T16:47:16.507Z,31.61
2019-05-29T16:49:46.534Z,31.88
2019-05-29T16:52:16.812Z,32.13
2019-05-29T16:54:46.500Z,32.34
2019-05-29T16:57:17.107Z,32.44
2019-05-29T16:59:46.731Z,32.50
2019-05-29T17:02:17.784Z,32.55
2019-05-29T17:04:47.411Z,32.47
2019-05-29T17:07:18.087Z,32.16
2019-05-29T17:09:47.681Z,31.72
2019-05-29T17:12:18.340Z,31.27
2019-05-29T17:14:47.983Z,31.01
2019-05-29T17:17:18.640Z,30.99
2019-05-29T17:19:48.208Z,31.10
2019-05-29T17:22:18.858Z,31.29
2019-05-29T17:24:48.500Z,31.52
2019-05-29T17:27:18.708Z,31.75
2019-05-29T17:29:48.803Z,31.96
2019-05-29T17:32:18.939Z,32.18
2019-05-29T17:34:48.379Z,32.40
2019-05-29T17:37:19.042Z,32.57
2019-05-29T17:39:48.664Z,32.73
2019-05-29T17:42:18.252Z,32.88
2019-05-29T17:44:47.801Z,32.98
2019-05-29T17:47:17.777Z,33.05
2019-05-29T17:49:47.357Z,33.11
2019-05-29T17:52:17.699Z,33.17
2019-05-29T17:54:47.227Z,33.17
2019-05-29T17:57:18.135Z,33.16
2019-05-29T17:59:47.837Z,33.13
2019-05-29T18:02:18.101Z,33.10
2019-05-29T18:04:47.657Z,33.03
2019-05-29T18:07:18.273Z,32.92
2019-05-29T18:09:47.897Z,32.79
2019-05-29T18:12:19.041Z,32.62
2019-05-29T18:14:48.735Z,32.25
2019-05-29T18:17:19.594Z,31.64
2019-05-29T18:19:49.531Z,30.90
2019-05-29T18:22:19.575Z,30.12
2019-05-29T18:24:49.588Z,29.36
2019-05-29T18:27:19.834Z,28.61
2019-05-29T18:29:49.476Z,27.93
2019-05-29T18:32:18.941Z,27.26
2019-05-29T18:34:51.744Z,26.66
2019-05-29T18:37:20.116Z,26.11
2019-05-29T18:39:49.589Z,25.62
2019-05-29T18:42:20.347Z,25.15
2019-05-29T18:44:50.080Z,24.73
2019-05-29T18:47:20.958Z,24.30
2019-05-29T18:49:50.469Z,23.92
2019-05-29T18:52:20.038Z,23.51
2019-05-29T18:54:49.552Z,23.13
2019-05-29T18:57:19.104Z,22.77
2019-05-29T18:59:48.614Z,22.39
2019-05-29T19:02:18.216Z,22.01
2019-05-29T19:04:47.728Z,21.67
2019-05-29T19:07:17.293Z,21.33
2019-05-29T19:09:46.804Z,21.00
2019-05-29T19:12:16.346Z,20.67
2019-05-29T19:14:45.961Z,20.38
2019-05-29T19:17:15.489Z,20.09
2019-05-29T19:19:45.208Z,19.80
2019-05-29T19:22:14.780Z,19.52
2019-05-29T19:24:44.243Z,19.23
2019-05-29T19:27:27.971Z,18.95
2019-05-29T19:29:45.032Z,18.72
2019-05-29T19:32:14.592Z,18.48
2019-05-29T19:34:44.163Z,18.29
2019-05-29T19:37:13.644Z,18.09
2019-05-29T19:39:43.092Z,17.92
2019-05-29T19:42:12.659Z,17.77
2019-05-29T19:44:42.108Z,17.64
2019-05-29T19:47:11.826Z,17.50
2019-05-29T19:49:41.324Z,17.38
2019-05-29T19:52:10.889Z,17.25
2019-05-29T19:54:40.421Z,17.13
2019-05-29T19:57:09.903Z,17.02
2019-05-29T19:59:39.391Z,16.91
2019-05-29T20:02:09.051Z,16.81
2019-05-29T20:04:38.543Z,16.73
2019-05-29T20:07:07.994Z,16.64
2019-05-29T20:09:37.666Z,16.57
2019-05-29T20:12:07.290Z,16.51
2019-05-29T20:14:37.976Z,16.46
2019-05-29T20:17:07.718Z,16.39
2019-05-29T20:19:39.640Z,16.33
2019-05-29T20:22:08.465Z,16.28
2019-05-29T20:24:39.054Z,16.23
2019-05-29T20:27:08.706Z,16.19
2019-05-29T20:29:38.554Z,16.14
2019-05-29T20:32:08.239Z,16.09
2019-05-29T20:34:38.894Z,16.04
2019-05-29T20:37:08.531Z,15.99
2019-05-29T20:39:38.465Z,15.96
2019-05-29T20:42:08.197Z,15.89
2019-05-29T20:44:38.743Z,15.82
2019-05-29T20:47:08.501Z,15.78
2019-05-29T20:49:38.099Z,15.73
2019-05-29T20:52:07.634Z,15.68
2019-05-29T20:54:37.665Z,15.63
2019-05-29T20:57:13.035Z,15.60
2019-05-29T20:59:42.985Z,15.57
2019-05-29T21:02:12.685Z,15.54
2019-05-29T21:04:42.802Z,15.53
2019-05-29T21:07:12.480Z,15.52
2019-05-29T21:09:43.198Z,15.49
2019-05-29T21:12:13.034Z,15.47
2019-05-29T21:14:44.635Z,15.46
2019-05-29T21:17:13.959Z,15.42
2019-05-29T21:19:44.675Z,15.40
2019-05-29T21:22:14.305Z,15.38
2019-05-29T21:24:49.642Z,15.36
2019-05-29T21:27:15.219Z,15.34
2019-05-29T21:29:45.527Z,15.32
2019-05-29T21:32:15.233Z,15.30
2019-05-29T21:34:46.108Z,15.30
2019-05-29T21:37:15.758Z,15.28
2019-05-29T21:39:46.537Z,15.27
2019-05-29T21:42:16.946Z,15.25
2019-05-29T21:44:47.084Z,15.24
2019-05-29T21:47:16.768Z,15.22
2019-05-29T21:49:47.464Z,15.18
2019-05-29T21:52:17.154Z,15.16
2019-05-29T21:54:47.682Z,15.13
2019-05-29T21:57:17.299Z,15.09
2019-05-29T21:59:47.994Z,15.05
2019-05-29T22:02:17.756Z,15.02
2019-05-29T22:04:48.554Z,14.96
2019-05-29T22:07:18.303Z,14.90
2019-05-29T22:09:47.952Z,14.83
2019-05-29T22:12:17.752Z,14.75
2019-05-29T22:14:47.244Z,14.68
2019-05-29T22:17:16.698Z,14.59
2019-05-29T22:19:46.446Z,14.52
2019-05-29T22:22:15.947Z,14.43
2019-05-29T22:25:07.345Z,14.35
2019-05-29T22:27:37.771Z,14.26
2019-05-29T22:30:08.143Z,14.17
2019-05-29T22:32:37.727Z,14.09
2019-05-29T22:35:08.591Z,14.00
2019-05-29T22:37:38.120Z,13.92
2019-05-29T22:40:08.411Z,13.83
2019-05-29T22:42:37.947Z,13.74
2019-05-29T22:45:08.131Z,13.67
2019-05-29T22:47:37.606Z,13.58
2019-05-29T22:50:08.020Z,13.50
2019-05-29T22:52:37.557Z,13.41
2019-05-29T22:55:07.883Z,13.35
2019-05-29T22:57:37.360Z,13.27
2019-05-29T23:00:10.357Z,13.22
2019-05-29T23:02:39.899Z,13.14
2019-05-29T23:05:09.510Z,13.08
2019-05-29T23:07:38.993Z,13.02
2019-05-29T23:10:11.538Z,12.96
2019-05-29T23:12:41.111Z,12.90
2019-05-29T23:15:11.340Z,12.84
2019-05-29T23:17:40.985Z,12.79
2019-05-29T23:20:10.903Z,12.74
2019-05-29T23:22:40.389Z,12.68
2019-05-29T23:25:11.199Z,12.63
2019-05-29T23:27:40.729Z,12.59
2019-05-29T23:30:12.213Z,12.54
2019-05-29T23:32:41.762Z,12.50
2019-05-29T23:35:11.433Z,12.46
2019-05-29T23:37:41.077Z,12.44
2019-05-29T23:40:11.075Z,12.41
2019-05-29T23:42:40.579Z,12.39
2019-05-29T23:45:11.087Z,12.38
2019-05-29T23:47:40.722Z,12.37
2019-05-29T23:50:10.715Z,12.36
2019-05-29T23:52:40.255Z,12.37
2019-05-29T23:55:10.283Z,12.38
2019-05-29T23:57:39.763Z,12.40
